sensor_id;sensor_type;location;lat;lon;timestamp;pressure;altitude;pressure_sealevel;temperature;humidity
46506;BME280;32220;49.808;9.968;2023-02-11T08:48:34;100699.06;;;5.75;77.64
46506;BME280;32220;49.808;9.968;2023-02-11T08:51:05;100734.97;;;6.40;75.31
46506;BME280;32220;49.808;9.968;2023-02-11T08:53:34;100735.09;;;6.87;70.63
46506;BME280;32220;49.808;9.968;2023-02-11T08:56:03;100759.59;;;7.39;67.82
46506;BME280;32220;49.808;9.968;2023-02-11T08:58:31;100761.31;;;7.85;66.59
46506;BME280;32220;49.808;9.968;2023-02-11T09:00:59;100761.19;;;8.29;64.00
46506;BME280;32220;49.808;9.968;2023-02-11T09:03:26;100746.66;;;8.50;62.48
46506;BME280;32220;49.808;9.968;2023-02-11T09:05:56;100768.69;;;8.86;61.13
46506;BME280;32220;49.808;9.968;2023-02-11T09:08:23;100778.75;;;9.05;60.36
46506;BME280;32220;49.808;9.968;2023-02-11T09:10:51;100782.25;;;9.07;59.90
46506;BME280;32220;49.808;9.968;2023-02-11T09:13:22;100784.41;;;8.91;58.61
46506;BME280;32220;49.808;9.968;2023-02-11T09:15:49;100787.13;;;8.88;59.19
46506;BME280;32220;49.808;9.968;2023-02-11T09:18:17;100781.22;;;9.12;59.58
46506;BME280;32220;49.808;9.968;2023-02-11T09:20:45;100766.53;;;9.65;58.25
46506;BME280;32220;49.808;9.968;2023-02-11T09:23:14;100759.81;;;10.14;56.73
46506;BME280;32220;49.808;9.968;2023-02-11T09:25:42;100764.97;;;10.48;56.03
46506;BME280;32220;49.808;9.968;2023-02-11T09:28:10;100778.50;;;10.67;55.36
46506;BME280;32220;49.808;9.968;2023-02-11T09:30:38;100769.03;;;10.60;54.69
46506;BME280;32220;49.808;9.968;2023-02-11T09:33:06;100782.44;;;10.54;54.07
46506;BME280;32220;49.808;9.968;2023-02-11T09:35:33;100764.34;;;10.40;53.98
46506;BME280;32220;49.808;9.968;2023-02-11T09:38:01;100772.19;;;10.43;53.72
46506;BME280;32220;49.808;9.968;2023-02-11T09:40:31;100776.84;;;10.36;54.42
46506;BME280;32220;49.808;9.968;2023-02-11T09:43:02;100776.38;;;10.22;54.37
46506;BME280;32220;49.808;9.968;2023-02-11T09:45:31;100756.63;;;10.03;54.39
46506;BME280;32220;49.808;9.968;2023-02-11T09:48:02;100761.66;;;10.12;54.95
46506;BME280;32220;49.808;9.968;2023-02-11T09:50:33;100767.91;;;10.09;54.75
46506;BME280;32220;49.808;9.968;2023-02-11T09:53:04;100761.81;;;10.06;55.06
46506;BME280;32220;49.808;9.968;2023-02-11T09:55:38;100761.91;;;10.03;54.80
46506;BME280;32220;49.808;9.968;2023-02-11T09:58:12;100751.53;;;9.97;55.24
46506;BME280;32220;49.808;9.968;2023-02-11T10:00:44;100759.06;;;10.11;55.24
46506;BME280;32220;49.808;9.968;2023-02-11T10:03:38;100751.06;;;10.12;54.63
46506;BME280;32220;49.808;9.968;2023-02-11T10:06:30;100743.00;;;10.15;54.35
46506;BME280;32220;49.808;9.968;2023-02-11T10:09:10;100748.66;;;10.34;54.86
46506;BME280;32220;49.808;9.968;2023-02-11T10:11:50;100771.47;;;10.66;53.94
46506;BME280;32220;49.808;9.968;2023-02-11T10:14:33;100771.88;;;10.80;53.13
46506;BME280;32220;49.808;9.968;2023-02-11T10:17:12;100764.66;;;10.85;54.04
46506;BME280;32220;49.808;9.968;2023-02-11T10:19:56;100776.03;;;11.13;53.31
46506;BME280;32220;49.808;9.968;2023-02-11T10:22:29;100794.81;;;11.34;52.64
46506;BME280;32220;49.808;9.968;2023-02-11T10:24:59;100798.47;;;11.30;52.88
46506;BME280;32220;49.808;9.968;2023-02-11T10:27:34;100803.59;;;11.36;52.63
46506;BME280;32220;49.808;9.968;2023-02-11T10:30:06;100808.34;;;11.51;52.70
46506;BME280;32220;49.808;9.968;2023-02-11T10:32:41;100806.31;;;11.59;52.71
46506;BME280;32220;49.808;9.968;2023-02-11T10:35:13;100800.16;;;11.57;52.49
46506;BME280;32220;49.808;9.968;2023-02-11T10:37:43;100806.84;;;11.44;52.38
46506;BME280;32220;49.808;9.968;2023-02-11T10:40:13;100786.66;;;11.13;52.67
46506;BME280;32220;49.808;9.968;2023-02-11T10:42:45;100804.78;;;11.26;52.95
46506;BME280;32220;49.808;9.968;2023-02-11T10:45:18;100800.44;;;11.25;53.02
46506;BME280;32220;49.808;9.968;2023-02-11T10:47:48;100797.97;;;11.19;52.78
46506;BME280;32220;49.808;9.968;2023-02-11T10:50:19;100795.56;;;11.12;53.07
46506;BME280;32220;49.808;9.968;2023-02-11T10:52:47;100796.84;;;11.26;52.87
46506;BME280;32220;49.808;9.968;2023-02-11T10:55:17;100797.97;;;11.45;52.68
46506;BME280;32220;49.808;9.968;2023-02-11T10:57:53;100784.72;;;11.68;52.74
46506;BME280;32220;49.808;9.968;2023-02-11T11:00:33;100797.03;;;11.96;51.95
46506;BME280;32220;49.808;9.968;2023-02-11T11:03:04;100797.25;;;12.13;51.26
46506;BME280;32220;49.808;9.968;2023-02-11T11:05:35;100796.50;;;12.09;51.30
46506;BME280;32220;49.808;9.968;2023-02-11T11:08:06;100789.06;;;11.96;51.45
46506;BME280;32220;49.808;9.968;2023-02-11T11:10:37;100799.31;;;11.81;51.82
46506;BME280;32220;49.808;9.968;2023-02-11T11:13:39;100795.84;;;11.55;51.82
46506;BME280;32220;49.808;9.968;2023-02-11T11:16:22;100796.75;;;11.29;52.40
46506;BME280;32220;49.808;9.968;2023-02-11T11:18:52;100793.81;;;11.11;52.59
46506;BME280;32220;49.808;9.968;2023-02-11T11:21:22;100801.25;;;11.00;52.98
46506;BME280;32220;49.808;9.968;2023-02-11T11:23:55;100785.56;;;10.94;53.55
46506;BME280;32220;49.808;9.968;2023-02-11T11:26:25;100779.66;;;10.86;53.30
46506;BME280;32220;49.808;9.968;2023-02-11T11:28:59;100757.19;;;10.70;53.78
46506;BME280;32220;49.808;9.968;2023-02-11T11:31:30;100778.13;;;10.77;53.64
46506;BME280;32220;49.808;9.968;2023-02-11T11:34:02;100775.53;;;10.76;54.10
46506;BME280;32220;49.808;9.968;2023-02-11T11:36:34;100739.06;;;10.58;54.35
46506;BME280;32220;49.808;9.968;2023-02-11T11:39:16;100760.84;;;10.66;54.62
46506;BME280;32220;49.808;9.968;2023-02-11T11:41:49;100769.31;;;10.77;54.34
46506;BME280;32220;49.808;9.968;2023-02-11T11:44:27;100758.81;;;10.75;54.87
46506;BME280;32220;49.808;9.968;2023-02-11T11:47:19;100763.88;;;10.82;54.49
46506;BME280;32220;49.808;9.968;2023-02-11T11:50:00;100741.34;;;10.68;54.56
46506;BME280;32220;49.808;9.968;2023-02-11T11:52:36;100762.06;;;10.84;54.27
46506;BME280;32220;49.808;9.968;2023-02-11T11:55:16;100749.63;;;10.86;54.46
46506;BME280;32220;49.808;9.968;2023-02-11T11:57:45;100761.69;;;10.94;54.32
46506;BME280;32220;49.808;9.968;2023-02-11T12:00:31;100750.16;;;10.95;53.84
46506;BME280;32220;49.808;9.968;2023-02-11T12:03:37;100763.94;;;11.06;53.66
46506;BME280;32220;49.808;9.968;2023-02-11T12:06:23;100764.03;;;11.03;53.64
46506;BME280;32220;49.808;9.968;2023-02-11T12:09:03;100757.84;;;11.03;53.85
46506;BME280;32220;49.808;9.968;2023-02-11T12:11:42;100742.13;;;10.98;53.92
46506;BME280;32220;49.808;9.968;2023-02-11T12:14:21;100753.22;;;11.09;53.93
46506;BME280;32220;49.808;9.968;2023-02-11T12:16:59;100764.66;;;11.11;53.39
46506;BME280;32220;49.808;9.968;2023-02-11T12:19:44;100761.31;;;11.05;53.65
46506;BME280;32220;49.808;9.968;2023-02-11T12:22:25;100760.41;;;11.06;53.57
46506;BME280;32220;49.808;9.968;2023-02-11T12:25:06;100756.84;;;11.07;54.01
46506;BME280;32220;49.808;9.968;2023-02-11T12:27:44;100751.69;;;11.02;54.09
46506;BME280;32220;49.808;9.968;2023-02-11T12:30:26;100742.81;;;11.03;54.22
46506;BME280;32220;49.808;9.968;2023-02-11T12:33:05;100743.72;;;11.02;54.28
46506;BME280;32220;49.808;9.968;2023-02-11T12:35:45;100744.88;;;10.95;54.31
46506;BME280;32220;49.808;9.968;2023-02-11T12:38:28;100745.88;;;10.91;54.70
46506;BME280;32220;49.808;9.968;2023-02-11T12:41:09;100738.03;;;10.88;54.53
46506;BME280;32220;49.808;9.968;2023-02-11T12:43:43;100737.19;;;10.88;54.44
46506;BME280;32220;49.808;9.968;2023-02-11T12:46:30;100743.03;;;10.97;54.72
46506;BME280;32220;49.808;9.968;2023-02-11T12:49:17;100743.03;;;10.97;54.84
46506;BME280;32220;49.808;9.968;2023-02-11T12:52:00;100741.31;;;10.96;55.28
46506;BME280;32220;49.808;9.968;2023-02-11T12:54:34;100739.66;;;10.92;54.94
46506;BME280;32220;49.808;9.968;2023-02-11T12:57:07;100736.41;;;10.84;55.13
46506;BME280;32220;49.808;9.968;2023-02-11T12:59:46;100709.56;;;10.68;55.38
46506;BME280;32220;49.808;9.968;2023-02-11T13:02:22;100720.16;;;10.68;55.69
46506;BME280;32220;49.808;9.968;2023-02-11T13:04:58;100716.25;;;10.78;55.77
46506;BME280;32220;49.808;9.968;2023-02-11T13:07:31;100695.84;;;10.82;55.51
46506;BME280;32220;49.808;9.968;2023-02-11T13:10:03;100698.66;;;11.02;55.65
46506;BME280;32220;49.808;9.968;2023-02-11T13:12:34;100696.63;;;11.10;55.14
46506;BME280;32220;49.808;9.968;2023-02-11T13:15:20;100702.31;;;11.25;55.44
46506;BME280;32220;49.808;9.968;2023-02-11T13:17:55;100708.19;;;11.33;54.94
46506;BME280;32220;49.808;9.968;2023-02-11T13:20:35;100704.16;;;11.46;54.71
46506;BME280;32220;49.808;9.968;2023-02-11T13:23:12;100694.94;;;11.56;54.58
46506;BME280;32220;49.808;9.968;2023-02-11T13:25:47;100685.09;;;11.60;54.73
46506;BME280;32220;49.808;9.968;2023-02-11T13:28:32;100690.41;;;11.60;54.55
46506;BME280;32220;49.808;9.968;2023-02-11T13:31:03;100688.66;;;11.59;54.50
46506;BME280;32220;49.808;9.968;2023-02-11T13:33:34;100694.03;;;11.57;54.32
46506;BME280;32220;49.808;9.968;2023-02-11T13:36:26;100681.50;;;11.61;54.51
46506;BME280;32220;49.808;9.968;2023-02-11T13:39:02;100679.03;;;11.56;53.94
46506;BME280;32220;49.808;9.968;2023-02-11T13:41:36;100673.72;;;11.56;54.07
46506;BME280;32220;49.808;9.968;2023-02-11T13:44:19;100663.09;;;11.56;54.15
46506;BME280;32220;49.808;9.968;2023-02-11T13:46:54;100687.97;;;11.77;54.10
46506;BME280;32220;49.808;9.968;2023-02-11T13:49:26;100694.28;;;11.74;53.77
46506;BME280;32220;49.808;9.968;2023-02-11T13:51:57;100687.44;;;11.67;53.99
46506;BME280;32220;49.808;9.968;2023-02-11T13:54:33;100695.66;;;11.61;53.99
46506;BME280;32220;49.808;9.968;2023-02-11T13:57:22;100702.34;;;11.48;54.50
46506;BME280;32220;49.808;9.968;2023-02-11T13:59:53;100689.03;;;11.25;54.69
46506;BME280;32220;49.808;9.968;2023-02-11T14:02:23;100691.94;;;11.17;54.89
46506;BME280;32220;49.808;9.968;2023-02-11T14:05:25;100676.00;;;10.94;55.46
46506;BME280;32220;49.808;9.968;2023-02-11T14:08:27;100692.41;;;10.78;55.95
46506;BME280;32220;49.808;9.968;2023-02-11T14:11:45;100687.56;;;10.65;56.73
46506;BME280;32220;49.808;9.968;2023-02-11T14:14:19;100688.75;;;10.56;57.07
46506;BME280;32220;49.808;9.968;2023-02-11T14:17:16;100696.09;;;10.48;57.24
46506;BME280;32220;49.808;9.968;2023-02-11T14:19:46;100686.66;;;10.39;57.61
46506;BME280;32220;49.808;9.968;2023-02-11T14:22:18;100679.94;;;10.29;58.09
46506;BME280;32220;49.808;9.968;2023-02-11T14:24:53;100678.50;;;10.19;58.27
46506;BME280;32220;49.808;9.968;2023-02-11T14:27:28;100675.28;;;10.08;58.95
46506;BME280;32220;49.808;9.968;2023-02-11T14:30:12;100661.69;;;9.91;59.20
46506;BME280;32220;49.808;9.968;2023-02-11T14:32:55;100636.59;;;9.76;59.49
46506;BME280;32220;49.808;9.968;2023-02-11T14:35:34;100669.59;;;9.92;59.59
46506;BME280;32220;49.808;9.968;2023-02-11T14:38:13;100666.34;;;9.84;60.15
46506;BME280;32220;49.808;9.968;2023-02-11T14:40:54;100692.41;;;9.96;60.00
46506;BME280;32220;49.808;9.968;2023-02-11T14:43:27;100700.31;;;9.98;59.76
46506;BME280;32220;49.808;9.968;2023-02-11T14:45:57;100698.75;;;9.91;60.18
46506;BME280;32220;49.808;9.968;2023-02-11T14:48:29;100690.19;;;9.83;60.25
46506;BME280;32220;49.808;9.968;2023-02-11T14:51:01;100717.19;;;9.94;60.07
46506;BME280;32220;49.808;9.968;2023-02-11T14:53:31;100708.59;;;9.87;59.88
46506;BME280;32220;49.808;9.968;2023-02-11T14:56:01;100716.28;;;9.95;59.92
46506;BME280;32220;49.808;9.968;2023-02-11T14:58:30;100705.19;;;9.82;60.58
46506;BME280;32220;49.808;9.968;2023-02-11T15:01:00;100709.72;;;9.79;60.71
46506;BME280;32220;49.808;9.968;2023-02-11T15:03:33;100703.03;;;9.65;61.01
46506;BME280;32220;49.808;9.968;2023-02-11T15:06:04;100696.22;;;9.58;61.14
46506;BME280;32220;49.808;9.968;2023-02-11T15:08:35;100705.06;;;9.57;61.58
46506;BME280;32220;49.808;9.968;2023-02-11T15:11:11;100697.25;;;9.53;61.89
46506;BME280;32220;49.808;9.968;2023-02-11T15:13:40;100717.28;;;9.61;61.51
46506;BME280;32220;49.808;9.968;2023-02-11T15:16:14;100708.69;;;9.53;61.77
46506;BME280;32220;49.808;9.968;2023-02-11T15:18:48;100721.72;;;9.61;62.24
46506;BME280;32220;49.808;9.968;2023-02-11T15:21:22;100720.94;;;9.57;62.09
46506;BME280;32220;49.808;9.968;2023-02-11T15:23:55;100701.94;;;9.43;62.46
46506;BME280;32220;49.808;9.968;2023-02-11T15:26:25;100715.03;;;9.48;62.50
46506;BME280;32220;49.808;9.968;2023-02-11T15:28:53;100716.97;;;9.41;62.42
46506;BME280;32220;49.808;9.968;2023-02-11T15:31:22;100714.59;;;9.32;62.57
46506;BME280;32220;49.808;9.968;2023-02-11T15:33:51;100725.16;;;9.32;62.61
46506;BME280;32220;49.808;9.968;2023-02-11T15:36:21;100693.16;;;9.10;62.55
46506;BME280;32220;49.808;9.968;2023-02-11T15:39:19;100721.94;;;9.21;62.66
46506;BME280;32220;49.808;9.968;2023-02-11T15:42:14;100711.56;;;9.15;63.18
46506;BME280;32220;49.808;9.968;2023-02-11T15:44:43;100721.34;;;9.11;63.43
46506;BME280;32220;49.808;9.968;2023-02-11T15:47:11;100716.13;;;9.08;63.61
46506;BME280;32220;49.808;9.968;2023-02-11T15:49:44;100720.63;;;9.05;63.51
46506;BME280;32220;49.808;9.968;2023-02-11T15:52:13;100718.88;;;9.04;63.56
46506;BME280;32220;49.808;9.968;2023-02-11T15:54:44;100705.97;;;8.93;63.77
46506;BME280;32220;49.808;9.968;2023-02-11T15:57:14;100706.75;;;8.96;63.83
46506;BME280;32220;49.808;9.968;2023-02-11T15:59:46;100713.84;;;8.94;64.16
46506;BME280;32220;49.808;9.968;2023-02-11T16:02:18;100707.84;;;8.89;65.00
46506;BME280;32220;49.808;9.968;2023-02-11T16:04:49;100711.44;;;8.85;65.28
46506;BME280;32220;49.808;9.968;2023-02-11T16:07:37;100712.44;;;8.81;65.42
46506;BME280;32220;49.808;9.968;2023-02-11T16:10:16;100709.09;;;8.75;65.45
46506;BME280;32220;49.808;9.968;2023-02-11T16:12:52;100683.94;;;8.60;66.15
46506;BME280;32220;49.808;9.968;2023-02-11T16:15:41;100711.88;;;8.69;66.32
46506;BME280;32220;49.808;9.968;2023-02-11T16:18:22;100713.75;;;8.65;66.45
46506;BME280;32220;49.808;9.968;2023-02-11T16:20:52;100699.91;;;8.54;66.73
46506;BME280;32220;49.808;9.968;2023-02-11T16:23:23;100708.75;;;8.53;66.65
46506;BME280;32220;49.808;9.968;2023-02-11T16:25:57;100704.38;;;8.52;66.54
46506;BME280;32220;49.808;9.968;2023-02-11T16:28:28;100692.28;;;8.42;66.50
46506;BME280;32220;49.808;9.968;2023-02-11T16:30:56;100700.22;;;8.42;66.65
46506;BME280;32220;49.808;9.968;2023-02-11T16:33:24;100693.34;;;8.35;66.85
46506;BME280;32220;49.808;9.968;2023-02-11T16:35:52;100729.19;;;8.45;66.91
46506;BME280;32220;49.808;9.968;2023-02-11T16:38:20;100725.72;;;8.43;67.03
46506;BME280;32220;49.808;9.968;2023-02-11T16:40:47;100724.84;;;8.42;66.77
46506;BME280;32220;49.808;9.968;2023-02-11T16:43:18;100730.25;;;8.38;67.05
46506;BME280;32220;49.808;9.968;2023-02-11T16:45:47;100739.97;;;8.36;66.75
46506;BME280;32220;49.808;9.968;2023-02-11T16:48:16;100728.69;;;8.27;67.28
46506;BME280;32220;49.808;9.968;2023-02-11T16:50:47;100740.94;;;8.32;67.74
46506;BME280;32220;49.808;9.968;2023-02-11T16:53:20;100737.44;;;8.29;67.90
46506;BME280;32220;49.808;9.968;2023-02-11T16:55:49;100747.25;;;8.24;68.11
46506;BME280;32220;49.808;9.968;2023-02-11T16:58:17;100739.34;;;8.23;68.30
46506;BME280;32220;49.808;9.968;2023-02-11T17:00:47;100744.72;;;8.18;68.18
46506;BME280;32220;49.808;9.968;2023-02-11T17:03:19;100730.03;;;8.07;68.30
46506;BME280;32220;49.808;9.968;2023-02-11T17:05:48;100747.53;;;8.12;68.18
46506;BME280;32220;49.808;9.968;2023-02-11T17:08:16;100742.31;;;8.09;68.23
46506;BME280;32220;49.808;9.968;2023-02-11T17:10:44;100756.31;;;8.13;68.55
46506;BME280;32220;49.808;9.968;2023-02-11T17:13:12;100751.91;;;8.13;69.03
46506;BME280;32220;49.808;9.968;2023-02-11T17:15:40;100735.56;;;7.96;69.14
46506;BME280;32220;49.808;9.968;2023-02-11T17:18:11;100753.78;;;8.07;69.31
46506;BME280;32220;49.808;9.968;2023-02-11T17:20:39;100760.88;;;8.05;69.35
46506;BME280;32220;49.808;9.968;2023-02-11T17:23:07;100750.53;;;7.94;69.82
46506;BME280;32220;49.808;9.968;2023-02-11T17:25:35;100754.81;;;8.01;69.48
46506;BME280;32220;49.808;9.968;2023-02-11T17:28:04;100758.34;;;8.00;69.66
46506;BME280;32220;49.808;9.968;2023-02-11T17:30:32;100765.41;;;7.98;69.77
46506;BME280;32220;49.808;9.968;2023-02-11T17:33:00;100742.84;;;7.85;69.60
46506;BME280;32220;49.808;9.968;2023-02-11T17:35:29;100777.81;;;7.93;69.80
46506;BME280;32220;49.808;9.968;2023-02-11T17:37:57;100753.44;;;7.82;69.78
46506;BME280;32220;49.808;9.968;2023-02-11T17:40:26;100778.66;;;7.95;69.73
46506;BME280;32220;49.808;9.968;2023-02-11T17:42:54;100744.03;;;7.69;69.32
46506;BME280;32220;49.808;9.968;2023-02-11T17:45:22;100790.97;;;7.96;69.76
46506;BME280;32220;49.808;9.968;2023-02-11T17:47:49;100790.13;;;7.94;69.75
46506;BME280;32220;49.808;9.968;2023-02-11T17:50:17;100791.88;;;7.93;69.62
46506;BME280;32220;49.808;9.968;2023-02-11T17:52:47;100786.63;;;7.92;69.76
46506;BME280;32220;49.808;9.968;2023-02-11T17:55:15;100785.84;;;7.88;70.03
46506;BME280;32220;49.808;9.968;2023-02-11T17:57:43;100772.91;;;7.78;70.17
46506;BME280;32220;49.808;9.968;2023-02-11T18:00:11;100787.66;;;7.86;70.40
46506;BME280;32220;49.808;9.968;2023-02-11T18:02:39;100777.31;;;7.77;70.28
46506;BME280;32220;49.808;9.968;2023-02-11T18:05:08;100789.47;;;7.83;70.49
46506;BME280;32220;49.808;9.968;2023-02-11T18:07:36;100764.31;;;7.67;70.38
46506;BME280;32220;49.808;9.968;2023-02-11T18:10:07;100789.53;;;7.80;70.30
46506;BME280;32220;49.808;9.968;2023-02-11T18:12:35;100787.94;;;7.73;70.16
46506;BME280;32220;49.808;9.968;2023-02-11T18:15:04;100801.00;;;7.79;70.27
46506;BME280;32220;49.808;9.968;2023-02-11T18:17:31;100791.34;;;7.78;70.39
46506;BME280;32220;49.808;9.968;2023-02-11T18:19:59;100787.88;;;7.76;71.04
46506;BME280;32220;49.808;9.968;2023-02-11T18:22:28;100790.56;;;7.73;71.16
46506;BME280;32220;49.808;9.968;2023-02-11T18:25:01;100786.22;;;7.70;71.29
46506;BME280;32220;49.808;9.968;2023-02-11T18:27:31;100764.59;;;7.53;71.29
46506;BME280;32220;49.808;9.968;2023-02-11T18:29:59;100797.69;;;7.68;71.04
46506;BME280;32220;49.808;9.968;2023-02-11T18:32:27;100790.66;;;7.68;71.63
46506;BME280;32220;49.808;9.968;2023-02-11T18:34:54;100785.41;;;7.67;71.26
46506;BME280;32220;49.808;9.968;2023-02-11T18:37:22;100789.84;;;7.66;71.69
46506;BME280;32220;49.808;9.968;2023-02-11T18:39:50;100796.94;;;7.63;71.80
46506;BME280;32220;49.808;9.968;2023-02-11T18:42:18;100793.50;;;7.57;71.99
46506;BME280;32220;49.808;9.968;2023-02-11T18:44:47;100783.84;;;7.56;72.16
46506;BME280;32220;49.808;9.968;2023-02-11T18:47:15;100777.81;;;7.51;72.50
46506;BME280;32220;49.808;9.968;2023-02-11T18:49:43;100789.13;;;7.56;72.66
46506;BME280;32220;49.808;9.968;2023-02-11T18:52:11;100784.81;;;7.54;72.25
46506;BME280;32220;49.808;9.968;2023-02-11T18:54:39;100784.81;;;7.52;72.55
46506;BME280;32220;49.808;9.968;2023-02-11T18:57:06;100794.53;;;7.50;72.38
46506;BME280;32220;49.808;9.968;2023-02-11T18:59:34;100790.16;;;7.49;72.66
46506;BME280;32220;49.808;9.968;2023-02-11T19:02:04;100780.69;;;7.39;72.58
46506;BME280;32220;49.808;9.968;2023-02-11T19:04:33;100802.50;;;7.47;72.50
46506;BME280;32220;49.808;9.968;2023-02-11T19:07:02;100782.53;;;7.34;72.82
46506;BME280;32220;49.808;9.968;2023-02-11T19:09:30;100806.03;;;7.45;72.37
46506;BME280;32220;49.808;9.968;2023-02-11T19:11:58;100805.16;;;7.44;72.89
46506;BME280;32220;49.808;9.968;2023-02-11T19:14:29;100812.22;;;7.44;72.81
46506;BME280;32220;49.808;9.968;2023-02-11T19:17:01;100810.41;;;7.47;72.99
46506;BME280;32220;49.808;9.968;2023-02-11T19:19:32;100817.41;;;7.48;72.35
46506;BME280;32220;49.808;9.968;2023-02-11T19:22:00;100819.19;;;7.46;72.60
46506;BME280;32220;49.808;9.968;2023-02-11T19:24:29;100815.66;;;7.47;72.60
46506;BME280;32220;49.808;9.968;2023-02-11T19:26:58;100807.81;;;7.44;72.59
46506;BME280;32220;49.808;9.968;2023-02-11T19:29:27;100796.50;;;7.39;72.60
46506;BME280;32220;49.808;9.968;2023-02-11T19:31:57;100809.53;;;7.47;72.88
46506;BME280;32220;49.808;9.968;2023-02-11T19:34:24;100764.44;;;7.14;72.83
46506;BME280;32220;49.808;9.968;2023-02-11T19:36:54;100751.53;;;7.01;73.34
46506;BME280;32220;49.808;9.968;2023-02-11T19:39:24;100829.88;;;7.40;73.29
